sensor_id;sensor_type;location;lat;lon;timestamp;pressure;altitude;pressure_sealevel;temperature;humidity
60170;BME280;46042;49.444;6.862;2022-10-31T00:01:00;99155.75;;;8.96;100.00
60170;BME280;46042;49.444;6.862;2022-10-31T00:03:27;99153.38;;;8.91;100.00
60170;BME280;46042;49.444;6.862;2022-10-31T00:05:54;99146.50;;;8.89;100.00
60170;BME280;46042;49.444;6.862;2022-10-31T00:08:20;99155.19;;;8.89;100.00
60170;BME280;46042;49.444;6.862;2022-10-31T00:10:47;99159.69;;;8.87;100.00
60170;BME280;46042;49.444;6.862;2022-10-31T00:13:14;99165.72;;;8.89;100.00
60170;BME280;46042;49.444;6.862;2022-10-31T00:15:41;99163.94;;;8.90;100.00
60170;BME280;46042;49.444;6.862;2022-10-31T00:18:09;99155.38;;;8.86;100.00
60170;BME280;46042;49.444;6.862;2022-10-31T00:20:36;99146.72;;;8.84;100.00
60170;BME280;46042;49.444;6.862;2022-10-31T00:23:04;99157.31;;;8.82;100.00
60170;BME280;46042;49.444;6.862;2022-10-31T00:25:37;99151.97;;;8.84;100.00
60170;BME280;46042;49.444;6.862;2022-10-31T00:28:05;99141.47;;;8.84;100.00
60170;BME280;46042;49.444;6.862;2022-10-31T00:30:33;99149.44;;;8.82;100.00
60170;BME280;46042;49.444;6.862;2022-10-31T00:33:00;99139.75;;;8.83;100.00
60170;BME280;46042;49.444;6.862;2022-10-31T00:35:29;99134.44;;;8.85;100.00
60170;BME280;46042;49.444;6.862;2022-10-31T00:37:55;99134.44;;;8.85;100.00
60170;BME280;46042;49.444;6.862;2022-10-31T00:40:22;99136.31;;;8.82;100.00
60170;BME280;46042;49.444;6.862;2022-10-31T00:42:48;99131.94;;;8.81;100.00
60170;BME280;46042;49.444;6.862;2022-10-31T00:45:15;99136.31;;;8.82;100.00
60170;BME280;46042;49.444;6.862;2022-10-31T00:47:42;99124.94;;;8.82;100.00
60170;BME280;46042;49.444;6.862;2022-10-31T00:50:08;99136.44;;;8.79;100.00
60170;BME280;46042;49.444;6.862;2022-10-31T00:52:35;99134.06;;;8.75;100.00
60170;BME280;46042;49.444;6.862;2022-10-31T00:55:02;99123.47;;;8.76;100.00
60170;BME280;46042;49.444;6.862;2022-10-31T00:57:28;99126.09;;;8.76;100.00
60170;BME280;46042;49.444;6.862;2022-10-31T00:59:55;99130.50;;;8.76;100.00
60170;BME280;46042;49.444;6.862;2022-10-31T01:02:21;99131.44;;;8.75;100.00
60170;BME280;46042;49.444;6.862;2022-10-31T01:04:48;99128.81;;;8.75;100.00
60170;BME280;46042;49.444;6.862;2022-10-31T01:07:15;99131.44;;;8.75;100.00
60170;BME280;46042;49.444;6.862;2022-10-31T01:09:41;99130.63;;;8.73;100.00
60170;BME280;46042;49.444;6.862;2022-10-31T01:12:08;99123.63;;;8.73;100.00
60170;BME280;46042;49.444;6.862;2022-10-31T01:14:35;99126.31;;;8.72;100.00
60170;BME280;46042;49.444;6.862;2022-10-31T01:17:01;99128.94;;;8.72;100.00
60170;BME280;46042;49.444;6.862;2022-10-31T01:19:28;99123.84;;;8.68;100.00
60170;BME280;46042;49.444;6.862;2022-10-31T01:21:55;99130.78;;;8.70;100.00
60170;BME280;46042;49.444;6.862;2022-10-31T01:24:21;99128.16;;;8.70;100.00
60170;BME280;46042;49.444;6.862;2022-10-31T01:26:48;99130.91;;;8.68;100.00
60170;BME280;46042;49.444;6.862;2022-10-31T01:29:14;99124.78;;;8.67;100.00
60170;BME280;46042;49.444;6.862;2022-10-31T01:31:41;99123.06;;;8.66;100.00
60170;BME280;46042;49.444;6.862;2022-10-31T01:34:13;99124.94;;;8.64;100.00
60170;BME280;46042;49.444;6.862;2022-10-31T01:36:40;99120.69;;;8.62;100.00
60170;BME280;46042;49.444;6.862;2022-10-31T01:39:14;99117.13;;;8.63;100.00
60170;BME280;46042;49.444;6.862;2022-10-31T01:41:44;99117.38;;;8.58;100.00
60170;BME280;46042;49.444;6.862;2022-10-31T01:49:42;99119.28;;;8.54;100.00
60170;BME280;46042;49.444;6.862;2022-10-31T01:54:40;99108.72;;;8.56;100.00
60170;BME280;46042;49.444;6.862;2022-10-31T01:57:11;99101.06;;;8.51;100.00
60170;BME280;46042;49.444;6.862;2022-10-31T01:59:43;99101.91;;;8.52;100.00
60170;BME280;46042;49.444;6.862;2022-10-31T02:02:13;99108.09;;;8.51;100.00
60170;BME280;46042;49.444;6.862;2022-10-31T02:04:41;99100.28;;;8.49;100.00
60170;BME280;46042;49.444;6.862;2022-10-31T02:07:13;99088.06;;;8.48;100.00
60170;BME280;46042;49.444;6.862;2022-10-31T02:09:40;99098.50;;;8.50;100.00
60170;BME280;46042;49.444;6.862;2022-10-31T02:12:10;99088.88;;;8.50;100.00
60170;BME280;46042;49.444;6.862;2022-10-31T02:14:38;99094.22;;;8.47;100.00
60170;BME280;46042;49.444;6.862;2022-10-31T02:17:05;99098.50;;;8.50;100.00
60170;BME280;46042;49.444;6.862;2022-10-31T02:22:22;99093.09;;;8.53;100.00
60170;BME280;46042;49.444;6.862;2022-10-31T02:33:38;99091.25;;;8.55;100.00
60170;BME280;46042;49.444;6.862;2022-10-31T02:36:15;99071.09;;;8.56;100.00
60170;BME280;46042;49.444;6.862;2022-10-31T02:39:23;99081.59;;;8.56;100.00
60170;BME280;46042;49.444;6.862;2022-10-31T02:42:16;99090.41;;;8.54;100.00
60170;BME280;46042;49.444;6.862;2022-10-31T02:47:50;99087.84;;;8.53;100.00
60170;BME280;46042;49.444;6.862;2022-10-31T02:50:24;99075.66;;;8.52;100.00
60170;BME280;46042;49.444;6.862;2022-10-31T02:52:53;99075.78;;;8.49;100.00
60170;BME280;46042;49.444;6.862;2022-10-31T02:57:55;99078.56;;;8.46;100.00
60170;BME280;46042;49.444;6.862;2022-10-31T03:00:23;99071.63;;;8.45;100.00
60170;BME280;46042;49.444;6.862;2022-10-31T03:05:55;99070.06;;;8.40;100.00
60170;BME280;46042;49.444;6.862;2022-10-31T03:08:37;99074.47;;;8.40;100.00
60170;BME280;46042;49.444;6.862;2022-10-31T03:11:08;99080.97;;;8.33;100.00
60170;BME280;46042;49.444;6.862;2022-10-31T03:14:06;99077.56;;;8.31;100.00
60170;BME280;46042;49.444;6.862;2022-10-31T03:19:26;99075.56;;;8.36;100.00
60170;BME280;46042;49.444;6.862;2022-10-31T03:21:58;99079.94;;;8.35;100.00
60170;BME280;46042;49.444;6.862;2022-10-31T03:24:36;99072.94;;;8.36;100.00
60170;BME280;46042;49.444;6.862;2022-10-31T03:27:04;99075.56;;;8.36;100.00
60170;BME280;46042;49.444;6.862;2022-10-31T03:29:36;99077.25;;;8.37;100.00
60170;BME280;46042;49.444;6.862;2022-10-31T03:32:11;99073.75;;;8.36;100.00
60170;BME280;46042;49.444;6.862;2022-10-31T03:34:40;99072.94;;;8.36;100.00
60170;BME280;46042;49.444;6.862;2022-10-31T03:37:10;99071.13;;;8.36;100.00
60170;BME280;46042;49.444;6.862;2022-10-31T03:39:41;99068.50;;;8.36;100.00
60170;BME280;46042;49.444;6.862;2022-10-31T03:42:14;99076.47;;;8.35;100.00
60170;BME280;46042;49.444;6.862;2022-10-31T03:44:46;99072.00;;;8.37;100.00
60170;BME280;46042;49.444;6.862;2022-10-31T03:47:15;99075.47;;;8.37;100.00
60170;BME280;46042;49.444;6.862;2022-10-31T03:49:42;99070.22;;;8.37;100.00
60170;BME280;46042;49.444;6.862;2022-10-31T03:52:28;99076.47;;;8.35;100.00
60170;BME280;46042;49.444;6.862;2022-10-31T04:00:13;99077.41;;;8.34;100.00
60170;BME280;46042;49.444;6.862;2022-10-31T04:02:45;99079.25;;;8.32;100.00
60170;BME280;46042;49.444;6.862;2022-10-31T04:05:15;99080.19;;;8.31;100.00
60170;BME280;46042;49.444;6.862;2022-10-31T04:07:46;99075.94;;;8.28;100.00
60170;BME280;46042;49.444;6.862;2022-10-31T04:10:15;99077.69;;;8.28;100.00
60170;BME280;46042;49.444;6.862;2022-10-31T04:12:45;99072.81;;;8.20;100.00
60170;BME280;46042;49.444;6.862;2022-10-31T04:15:15;99078.06;;;8.20;100.00
60170;BME280;46042;49.444;6.862;2022-10-31T04:17:44;99077.22;;;8.19;100.00
60170;BME280;46042;49.444;6.862;2022-10-31T04:20:15;99079.84;;;8.19;100.00
60170;BME280;46042;49.444;6.862;2022-10-31T04:22:42;99072.91;;;8.18;100.00
60170;BME280;46042;49.444;6.862;2022-10-31T04:25:09;99080.78;;;8.18;100.00
60170;BME280;46042;49.444;6.862;2022-10-31T04:27:36;99076.53;;;8.16;100.00
60170;BME280;46042;49.444;6.862;2022-10-31T04:30:02;99074.06;;;8.13;100.00
60170;BME280;46042;49.444;6.862;2022-10-31T04:32:30;99081.16;;;8.10;100.00
60170;BME280;46042;49.444;6.862;2022-10-31T04:34:56;99075.19;;;8.07;100.00
60170;BME280;46042;49.444;6.862;2022-10-31T04:37:23;99076.84;;;8.09;100.00
60170;BME280;46042;49.444;6.862;2022-10-31T04:39:49;99068.09;;;8.09;100.00
60170;BME280;46042;49.444;6.862;2022-10-31T04:42:16;99072.78;;;8.02;100.00
60170;BME280;46042;49.444;6.862;2022-10-31T04:44:42;99074.03;;;7.95;100.00
60170;BME280;46042;49.444;6.862;2022-10-31T04:47:09;99080.25;;;7.92;100.00
60170;BME280;46042;49.444;6.862;2022-10-31T04:49:36;99073.25;;;7.93;100.00
60170;BME280;46042;49.444;6.862;2022-10-31T04:52:02;99068.84;;;7.93;100.00
60170;BME280;46042;49.444;6.862;2022-10-31T04:54:29;99059.22;;;7.94;100.00
60170;BME280;46042;49.444;6.862;2022-10-31T04:56:56;99056.66;;;7.92;100.00
60170;BME280;46042;49.444;6.862;2022-10-31T04:59:22;99049.72;;;7.91;100.00
60170;BME280;46042;49.444;6.862;2022-10-31T05:01:49;99052.44;;;7.90;100.00
60170;BME280;46042;49.444;6.862;2022-10-31T05:04:16;99051.50;;;7.91;100.00
60170;BME280;46042;49.444;6.862;2022-10-31T05:06:42;99050.72;;;7.89;100.00
60170;BME280;46042;49.444;6.862;2022-10-31T05:09:09;99056.97;;;7.86;100.00
60170;BME280;46042;49.444;6.862;2022-10-31T05:11:35;99052.69;;;7.83;100.00
60170;BME280;46042;49.444;6.862;2022-10-31T05:14:02;99049.41;;;7.80;100.00
60170;BME280;46042;49.444;6.862;2022-10-31T05:16:29;99045.91;;;7.79;100.00
60170;BME280;46042;49.444;6.862;2022-10-31T05:18:55;99049.47;;;7.78;100.00
60170;BME280;46042;49.444;6.862;2022-10-31T05:21:22;99046.13;;;7.75;100.00
60170;BME280;46042;49.444;6.862;2022-10-31T05:23:48;99049.75;;;7.72;100.00
60170;BME280;46042;49.444;6.862;2022-10-31T05:26:16;99056.72;;;7.73;100.00
60170;BME280;46042;49.444;6.862;2022-10-31T05:28:43;99044.53;;;7.72;100.00
60170;BME280;46042;49.444;6.862;2022-10-31T05:31:09;99048.06;;;7.71;100.00
60170;BME280;46042;49.444;6.862;2022-10-31T05:33:36;99036.00;;;7.67;100.00
60170;BME280;46042;49.444;6.862;2022-10-31T05:36:02;99028.22;;;7.65;100.00
60170;BME280;46042;49.444;6.862;2022-10-31T05:38:29;99023.03;;;7.64;100.00
60170;BME280;46042;49.444;6.862;2022-10-31T05:40:56;99019.59;;;7.63;100.00
60170;BME280;46042;49.444;6.862;2022-10-31T05:43:27;99018.72;;;7.63;100.00
60170;BME280;46042;49.444;6.862;2022-10-31T05:45:55;99019.72;;;7.60;100.00
60170;BME280;46042;49.444;6.862;2022-10-31T05:48:22;99010.16;;;7.59;100.00
60170;BME280;46042;49.444;6.862;2022-10-31T05:50:49;99019.84;;;7.57;100.00
60170;BME280;46042;49.444;6.862;2022-10-31T05:53:16;99020.72;;;7.58;100.00
60170;BME280;46042;49.444;6.862;2022-10-31T05:55:43;99005.16;;;7.54;100.00
60170;BME280;46042;49.444;6.862;2022-10-31T05:58:10;99012.28;;;7.51;100.00
60170;BME280;46042;49.444;6.862;2022-10-31T06:00:37;99014.97;;;7.49;100.00
60170;BME280;46042;49.444;6.862;2022-10-31T06:03:06;99011.59;;;7.47;100.00
60170;BME280;46042;49.444;6.862;2022-10-31T06:05:34;99010.66;;;7.48;100.00
60170;BME280;46042;49.444;6.862;2022-10-31T06:08:01;99012.50;;;7.46;100.00
60170;BME280;46042;49.444;6.862;2022-10-31T06:10:28;99010.19;;;7.40;100.00
60170;BME280;46042;49.444;6.862;2022-10-31T06:12:56;99002.22;;;7.42;100.00
60170;BME280;46042;49.444;6.862;2022-10-31T06:15:22;99004.06;;;7.39;100.00
60170;BME280;46042;49.444;6.862;2022-10-31T06:18:04;99005.88;;;7.39;100.00
60170;BME280;46042;49.444;6.862;2022-10-31T06:20:32;99012.88;;;7.38;100.00
60170;BME280;46042;49.444;6.862;2022-10-31T06:22:59;99021.44;;;7.42;100.00
60170;BME280;46042;49.444;6.862;2022-10-31T06:25:27;99014.41;;;7.43;100.00
60170;BME280;46042;49.444;6.862;2022-10-31T06:27:54;99015.34;;;7.42;100.00
60170;BME280;46042;49.444;6.862;2022-10-31T06:30:22;99014.50;;;7.41;100.00
60170;BME280;46042;49.444;6.862;2022-10-31T06:32:48;99020.56;;;7.42;100.00
60170;BME280;46042;49.444;6.862;2022-10-31T06:35:16;99021.34;;;7.44;100.00
60170;BME280;46042;49.444;6.862;2022-10-31T06:37:42;99015.13;;;7.46;100.00
60170;BME280;46042;49.444;6.862;2022-10-31T06:40:14;99020.38;;;7.46;100.00
60170;BME280;46042;49.444;6.862;2022-10-31T06:42:41;99013.44;;;7.45;100.00
60170;BME280;46042;49.444;6.862;2022-10-31T06:45:08;99016.69;;;7.50;100.00
60170;BME280;46042;49.444;6.862;2022-10-31T06:47:34;99004.34;;;7.52;100.00
60170;BME280;46042;49.444;6.862;2022-10-31T06:50:22;99016.56;;;7.53;100.00
60170;BME280;46042;49.444;6.862;2022-10-31T06:52:57;99020.72;;;7.58;100.00
60170;BME280;46042;49.444;6.862;2022-10-31T06:55:25;99016.31;;;7.58;100.00
60170;BME280;46042;49.444;6.862;2022-10-31T06:57:53;99023.03;;;7.64;100.00
60170;BME280;46042;49.444;6.862;2022-10-31T07:00:29;99023.75;;;7.67;100.00
60170;BME280;46042;49.444;6.862;2022-10-31T07:03:05;99020.97;;;7.71;100.00
60170;BME280;46042;49.444;6.862;2022-10-31T07:05:32;99016.72;;;7.68;100.00
60170;BME280;46042;49.444;6.862;2022-10-31T07:08:02;99027.09;;;7.71;100.00
60170;BME280;46042;49.444;6.862;2022-10-31T07:10:31;99026.78;;;7.77;100.00
60170;BME280;46042;49.444;6.862;2022-10-31T07:13:06;99020.59;;;7.78;100.00
60170;BME280;46042;49.444;6.862;2022-10-31T07:15:35;99017.94;;;7.80;100.00
60170;BME280;46042;49.444;6.862;2022-10-31T07:18:03;99019.53;;;7.82;100.00
60170;BME280;46042;49.444;6.862;2022-10-31T07:20:31;99029.75;;;7.89;100.00
60170;BME280;46042;49.444;6.862;2022-10-31T07:22:58;99025.13;;;7.94;100.00
60170;BME280;46042;49.444;6.862;2022-10-31T07:25:25;99030.13;;;7.99;100.00
60170;BME280;46042;49.444;6.862;2022-10-31T07:27:51;99028.06;;;8.05;100.00
60170;BME280;46042;49.444;6.862;2022-10-31T07:30:18;99030.38;;;8.11;100.00
60170;BME280;46042;49.444;6.862;2022-10-31T07:32:49;99028.38;;;8.17;100.00
60170;BME280;46042;49.444;6.862;2022-10-31T07:35:20;99023.88;;;8.19;100.00
60170;BME280;46042;49.444;6.862;2022-10-31T07:37:48;99027.22;;;8.22;100.00
60170;BME280;46042;49.444;6.862;2022-10-31T07:40:15;99025.28;;;8.26;100.00
60170;BME280;46042;49.444;6.862;2022-10-31T07:42:44;99031.16;;;8.31;100.00
60170;BME280;46042;49.444;6.862;2022-10-31T07:45:13;99026.44;;;8.38;100.00
60170;BME280;46042;49.444;6.862;2022-10-31T07:50:08;99033.16;;;8.44;100.00
60170;BME280;46042;49.444;6.862;2022-10-31T07:52:35;99034.63;;;8.49;100.00
60170;BME280;46042;49.444;6.862;2022-10-31T07:55:03;99036.25;;;8.52;100.00
60170;BME280;46042;49.444;6.862;2022-10-31T07:57:30;99032.56;;;8.56;100.00
60170;BME280;46042;49.444;6.862;2022-10-31T08:00:00;99032.25;;;8.62;100.00
60170;BME280;46042;49.444;6.862;2022-10-31T08:02:27;99027.53;;;8.69;100.00
60170;BME280;46042;49.444;6.862;2022-10-31T08:04:53;99027.19;;;8.75;100.00
60170;BME280;46042;49.444;6.862;2022-10-31T08:07:26;99029.50;;;8.81;100.00
60170;BME280;46042;49.444;6.862;2022-10-31T08:09:53;99034.63;;;8.85;100.00
60170;BME280;46042;49.444;6.862;2022-10-31T08:12:19;99031.72;;;8.89;100.00
60170;BME280;46042;49.444;6.862;2022-10-31T08:14:46;99032.25;;;8.96;100.00
60170;BME280;46042;49.444;6.862;2022-10-31T08:17:13;99028.56;;;9.00;100.00
60170;BME280;46042;49.444;6.862;2022-10-31T08:19:39;99025.59;;;9.06;100.00
60170;BME280;46042;49.444;6.862;2022-10-31T08:22:06;99020.91;;;9.11;100.00
60170;BME280;46042;49.444;6.862;2022-10-31T08:24:33;99017.03;;;9.19;100.00
60170;BME280;46042;49.444;6.862;2022-10-31T08:26:59;99020.03;;;9.29;100.00
60170;BME280;46042;49.444;6.862;2022-10-31T08:29:26;99016.88;;;9.38;100.00
60170;BME280;46042;49.444;6.862;2022-10-31T08:31:52;99016.63;;;9.43;100.00
60170;BME280;46042;49.444;6.862;2022-10-31T08:34:19;99013.66;;;9.49;100.00
60170;BME280;46042;49.444;6.862;2022-10-31T08:36:46;99018.75;;;9.52;100.00
60170;BME280;46042;49.444;6.862;2022-10-31T08:39:12;99007.81;;;9.60;100.00
60170;BME280;46042;49.444;6.862;2022-10-31T08:41:39;99007.28;;;9.69;100.00
60170;BME280;46042;49.444;6.862;2022-10-31T08:44:05;98997.06;;;9.79;100.00
60170;BME280;46042;49.444;6.862;2022-10-31T08:46:32;98994.94;;;9.86;100.00
60170;BME280;46042;49.444;6.862;2022-10-31T08:48:59;98993.50;;;9.96;100.00
60170;BME280;46042;49.444;6.862;2022-10-31T08:51:25;98989.56;;;10.03;100.00
60170;BME280;46042;49.444;6.862;2022-10-31T08:53:52;98989.97;;;10.12;100.00
60170;BME280;46042;49.444;6.862;2022-10-31T08:56:19;98986.28;;;10.14;100.00
60170;BME280;46042;49.444;6.862;2022-10-31T08:58:45;98982.47;;;10.20;100.00
60170;BME280;46042;49.444;6.862;2022-10-31T09:01:12;98987.00;;;10.32;100.00
60170;BME280;46042;49.444;6.862;2022-10-31T09:03:38;98978.72;;;10.38;100.00
60170;BME280;46042;49.444;6.862;2022-10-31T09:06:05;98976.41;;;10.48;100.00
60170;BME280;46042;49.444;6.862;2022-10-31T09:08:35;98987.16;;;10.60;100.00
60170;BME280;46042;49.444;6.862;2022-10-31T09:11:03;98982.94;;;10.72;100.00
60170;BME280;46042;49.444;6.862;2022-10-31T09:13:29;98970.16;;;10.80;100.00
60170;BME280;46042;49.444;6.862;2022-10-31T09:15:56;98978.22;;;10.91;100.00
60170;BME280;46042;49.444;6.862;2022-10-31T09:18:26;98983.47;;;11.06;100.00
60170;BME280;46042;49.444;6.862;2022-10-31T09:20:57;98984.41;;;11.19;100.00
60170;BME280;46042;49.444;6.862;2022-10-31T09:23:24;98981.94;;;11.31;100.00
60170;BME280;46042;49.444;6.862;2022-10-31T09:25:52;98979.66;;;11.39;100.00
60170;BME280;46042;49.444;6.862;2022-10-31T09:28:22;98980.94;;;11.46;100.00
60170;BME280;46042;49.444;6.862;2022-10-31T09:30:51;98974.78;;;11.60;100.00
60170;BME280;46042;49.444;6.862;2022-10-31T09:33:18;98963.31;;;11.74;100.00
60170;BME280;46042;49.444;6.862;2022-10-31T09:35:45;98959.69;;;11.90;100.00
60170;BME280;46042;49.444;6.862;2022-10-31T09:38:19;98956.78;;;12.07;100.00
60170;BME280;46042;49.444;6.862;2022-10-31T09:43:47;98963.59;;;12.37;100.00
60170;BME280;46042;49.444;6.862;2022-10-31T09:52:32;98966.94;;;12.91;100.00
60170;BME280;46042;49.444;6.862;2022-10-31T09:54:38;98965.63;;;13.10;100.00
60170;BME280;46042;49.444;6.862;2022-10-31T09:57:13;98955.41;;;13.30;100.00
60170;BME280;46042;49.444;6.862;2022-10-31T09:59:41;98946.56;;;13.55;100.00
60170;BME280;46042;49.444;6.862;2022-10-31T10:10:18;98936.78;;;14.04;100.00
60170;BME280;46042;49.444;6.862;2022-10-31T10:15:37;98946.09;;;14.44;100.00
60170;BME280;46042;49.444;6.862;2022-10-31T10:18:27;98939.25;;;14.53;100.00
60170;BME280;46042;49.444;6.862;2022-10-31T10:30:02;98923.72;;;14.60;100.00
60170;BME280;46042;49.444;6.862;2022-10-31T10:32:43;98926.41;;;14.71;100.00
60170;BME280;46042;49.444;6.862;2022-10-31T10:35:22;98932.91;;;14.78;100.00
60170;BME280;46042;49.444;6.862;2022-10-31T10:37:53;98933.63;;;14.81;100.00
60170;BME280;46042;49.444;6.862;2022-10-31T10:40:24;98938.72;;;14.84;100.00
60170;BME280;46042;49.444;6.862;2022-10-31T10:51:49;98931.09;;;15.02;90.08
60170;BME280;46042;49.444;6.862;2022-10-31T11:00:01;98932.75;;;15.26;92.81
60170;BME280;46042;49.444;6.862;2022-10-31T11:02:32;98929.22;;;15.36;93.38
60170;BME280;46042;49.444;6.862;2022-10-31T11:05:00;98928.34;;;15.47;89.89
60170;BME280;46042;49.444;6.862;2022-10-31T11:07:38;98927.25;;;15.50;87.71
60170;BME280;46042;49.444;6.862;2022-10-31T11:10:06;98913.84;;;15.52;89.03
60170;BME280;46042;49.444;6.862;2022-10-31T11:12:40;98901.16;;;15.55;91.42
60170;BME280;46042;49.444;6.862;2022-10-31T11:15:21;98882.44;;;15.57;89.80
60170;BME280;46042;49.444;6.862;2022-10-31T11:17:51;98881.22;;;15.61;91.14
60170;BME280;46042;49.444;6.862;2022-10-31T11:22:46;98907.53;;;15.64;88.50
60170;BME280;46042;49.444;6.862;2022-10-31T11:27:46;98902.41;;;15.72;89.78
60170;BME280;46042;49.444;6.862;2022-10-31T11:30:15;98902.16;;;15.75;90.44
60170;BME280;46042;49.444;6.862;2022-10-31T11:32:47;98899.63;;;15.74;89.74
60170;BME280;46042;49.444;6.862;2022-10-31T11:35:18;98886.94;;;15.77;87.03
60170;BME280;46042;49.444;6.862;2022-10-31T11:37:46;98862.63;;;15.82;90.21
60170;BME280;46042;49.444;6.862;2022-10-31T11:40:16;98856.22;;;15.85;89.58
60170;BME280;46042;49.444;6.862;2022-10-31T11:42:44;98858.38;;;15.91;89.79
60170;BME280;46042;49.444;6.862;2022-10-31T11:45:30;98845.34;;;15.88;88.76
60170;BME280;46042;49.444;6.862;2022-10-31T11:47:58;98845.72;;;15.83;87.63
60170;BME280;46042;49.444;6.862;2022-10-31T11:50:40;98849.50;;;15.81;86.97
60170;BME280;46042;49.444;6.862;2022-10-31T11:53:30;98870.03;;;15.78;88.51
60170;BME280;46042;49.444;6.862;2022-10-31T11:56:19;98863.03;;;15.77;87.61
60170;BME280;46042;49.444;6.862;2022-10-31T11:59:02;98852.41;;;15.77;89.08
60170;BME280;46042;49.444;6.862;2022-10-31T12:01:31;98861.22;;;15.78;87.63
60170;BME280;46042;49.444;6.862;2022-10-31T12:04:06;98854.81;;;15.81;87.42
60170;BME280;46042;49.444;6.862;2022-10-31T12:06:39;98848.25;;;15.85;87.40
60170;BME280;46042;49.444;6.862;2022-10-31T12:09:23;98846.56;;;15.84;86.59
60170;BME280;46042;49.444;6.862;2022-10-31T12:33:51;98792.09;;;16.11;89.25
60170;BME280;46042;49.444;6.862;2022-10-31T12:36:24;98792.97;;;16.31;87.98
60170;BME280;46042;49.444;6.862;2022-10-31T12:39:24;98794.88;;;16.50;86.88
60170;BME280;46042;49.444;6.862;2022-10-31T12:45:00;98772.56;;;16.92;85.92
60170;BME280;46042;49.444;6.862;2022-10-31T12:47:43;98765.56;;;16.91;83.10
60170;BME280;46042;49.444;6.862;2022-10-31T12:50:22;98763.31;;;16.96;85.47
60170;BME280;46042;49.444;6.862;2022-10-31T12:58:26;98756.88;;;16.89;83.55
60170;BME280;46042;49.444;6.862;2022-10-31T13:01:22;98741.59;;;16.91;85.07
60170;BME280;46042;49.444;6.862;2022-10-31T13:07:15;98719.63;;;16.89;84.26
60170;BME280;46042;49.444;6.862;2022-10-31T13:09:52;98707.44;;;16.86;85.67
60170;BME280;46042;49.444;6.862;2022-10-31T13:12:22;98694.00;;;16.78;86.24
60170;BME280;46042;49.444;6.862;2022-10-31T13:14:53;98668.09;;;16.80;86.91
60170;BME280;46042;49.444;6.862;2022-10-31T13:17:31;98680.41;;;16.81;86.42
60170;BME280;46042;49.444;6.862;2022-10-31T13:20:19;98707.72;;;16.83;84.10
60170;BME280;46042;49.444;6.862;2022-10-31T13:22:52;98717.69;;;17.11;92.19
60170;BME280;46042;49.444;6.862;2022-10-31T13:25:33;98730.88;;;17.12;88.23
60170;BME280;46042;49.444;6.862;2022-10-31T13:28:05;98718.38;;;17.03;85.08
60170;BME280;46042;49.444;6.862;2022-10-31T13:30:40;98714.34;;;16.99;83.32
60170;BME280;46042;49.444;6.862;2022-10-31T13:33:14;98698.75;;;16.94;84.71
60170;BME280;46042;49.444;6.862;2022-10-31T13:35:51;98700.03;;;16.80;84.24
60170;BME280;46042;49.444;6.862;2022-10-31T13:39:02;98709.81;;;16.70;84.85
60170;BME280;46042;49.444;6.862;2022-10-31T13:41:40;98708.69;;;16.62;85.68
60170;BME280;46042;49.444;6.862;2022-10-31T13:46:39;98696.63;;;16.58;88.37
60170;BME280;46042;49.444;6.862;2022-10-31T13:54:44;98641.75;;;16.57;92.20
60170;BME280;46042;49.444;6.862;2022-10-31T13:57:33;98619.22;;;16.52;90.97
60170;BME280;46042;49.444;6.862;2022-10-31T14:02:48;98632.66;;;16.30;88.10
60170;BME280;46042;49.444;6.862;2022-10-31T14:05:36;98642.44;;;16.30;92.71
60170;BME280;46042;49.444;6.862;2022-10-31T14:08:04;98648.63;;;16.30;89.77
60170;BME280;46042;49.444;6.862;2022-10-31T14:10:37;98641.34;;;16.32;89.53
60170;BME280;46042;49.444;6.862;2022-10-31T14:16:26;98639.97;;;16.38;87.70
60170;BME280;46042;49.444;6.862;2022-10-31T14:19:06;98641.34;;;16.42;92.06
60170;BME280;46042;49.444;6.862;2022-10-31T14:21:39;98671.88;;;16.48;90.47
60170;BME280;46042;49.444;6.862;2022-10-31T14:24:34;98692.00;;;16.60;92.85
60170;BME280;46042;49.444;6.862;2022-10-31T14:29:46;98640.53;;;16.61;90.51
60170;BME280;46042;49.444;6.862;2022-10-31T14:32:25;98626.09;;;16.54;89.99
60170;BME280;46042;49.444;6.862;2022-10-31T14:34:55;98625.28;;;16.54;91.02
60170;BME280;46042;49.444;6.862;2022-10-31T14:45:53;98608.88;;;16.48;90.58
60170;BME280;46042;49.444;6.862;2022-10-31T14:48:49;98612.69;;;16.36;91.38
60170;BME280;46042;49.444;6.862;2022-10-31T14:51:22;98603.97;;;16.24;90.54
60170;BME280;46042;49.444;6.862;2022-10-31T14:53:51;98602.56;;;16.20;89.46
60170;BME280;46042;49.444;6.862;2022-10-31T14:56:43;98593.91;;;16.08;88.93
60170;BME280;46042;49.444;6.862;2022-10-31T14:59:19;98585.22;;;16.06;89.90
60170;BME280;46042;49.444;6.862;2022-10-31T15:01:59;98582.28;;;16.09;89.70
60170;BME280;46042;49.444;6.862;2022-10-31T15:04:29;98572.75;;;16.06;90.86
60170;BME280;46042;49.444;6.862;2022-10-31T15:07:12;98574.88;;;16.03;92.23
60170;BME280;46042;49.444;6.862;2022-10-31T15:09:56;98593.25;;;15.85;92.01
60170;BME280;46042;49.444;6.862;2022-10-31T15:14:51;98587.66;;;15.78;91.99
60170;BME280;46042;49.444;6.862;2022-10-31T15:17:19;98603.84;;;15.75;92.65
60170;BME280;46042;49.444;6.862;2022-10-31T15:19:46;98590.69;;;15.73;93.92
60170;BME280;46042;49.444;6.862;2022-10-31T15:22:18;98603.44;;;15.70;93.16
60170;BME280;46042;49.444;6.862;2022-10-31T15:24:45;98588.59;;;15.67;94.04
60170;BME280;46042;49.444;6.862;2022-10-31T15:27:14;98593.47;;;15.62;94.75
60170;BME280;46042;49.444;6.862;2022-10-31T15:29:53;98615.50;;;15.53;93.75
60170;BME280;46042;49.444;6.862;2022-10-31T15:32:28;98603.22;;;15.52;94.74
60170;BME280;46042;49.444;6.862;2022-10-31T15:34:56;98582.66;;;15.44;95.60
60170;BME280;46042;49.444;6.862;2022-10-31T15:37:26;98578.41;;;15.31;96.22
60170;BME280;46042;49.444;6.862;2022-10-31T15:39:53;98588.25;;;15.19;96.14
60170;BME280;46042;49.444;6.862;2022-10-31T15:42:28;98591.06;;;15.18;96.92
60170;BME280;46042;49.444;6.862;2022-10-31T15:45:15;98579.75;;;15.16;96.94
60170;BME280;46042;49.444;6.862;2022-10-31T15:47:53;98581.81;;;15.12;98.73